Time;durP1;ratioP1;P1;durP2;ratioP2;P2;SDS_P1;SDS_P2;PMS_P1;PMS_P2;Temp;Humidity;BMP_temperature;BMP_pressure;BME280_temperature;BME280_humidity;BME280_pressure;Samples;Min_cycle;Max_cycle;Signal;HPM_P1;HPM_P2
2023/06/19 00:00:15;;;;;;;;;;;;;;;21.31;76.33;96961.23;620184;228;64921;-60
2023/06/19 00:02:44;;;;;;;;;;;;;;;21.31;76.34;96966.58;620128;228;68791;-60
2023/06/19 00:05:13;;;;;;;;;;;;;;;21.30;76.36;96965.79;620149;228;68660;-60
2023/06/19 00:07:41;;;;;;;;;;;;;;;21.29;76.36;96962.32;620133;228;65056;-60
2023/06/19 00:10:08;;;;;;;;;;;;;;;21.29;76.38;96956.18;620108;228;66427;-60
2023/06/19 00:12:36;;;;;;;;;;;;;;;21.30;76.39;96960.44;620174;228;68816;-61
2023/06/19 00:15:04;;;;;;;;;;;;;;;21.29;76.37;96956.18;620120;228;65036;-61
2023/06/19 00:17:32;;;;;;;;;;;;;;;21.29;76.36;96959.65;620135;228;68572;-61
2023/06/19 00:20:00;;;;;;;;;;;;;;;21.29;76.37;96953.51;620127;228;68645;-61
2023/06/19 00:22:28;;;;;;;;;;;;;;;21.29;76.35;96959.65;620113;228;65075;-61
2023/06/19 00:24:55;;;;;;;;;;;;;;;21.30;76.39;96955.09;620120;228;68856;-61
2023/06/19 00:27:24;;;;;;;;;;;;;;;21.29;76.37;96948.16;620140;228;68604;-61
2023/06/19 00:29:52;;;;;;;;;;;;;;;21.29;76.38;96943.61;620131;228;64964;-61
2023/06/19 00:32:20;;;;;;;;;;;;;;;21.29;76.37;96948.95;620129;228;68760;-61
2023/06/19 00:34:48;;;;;;;;;;;;;;;21.28;76.37;96947.37;620144;228;66442;-61
2023/06/19 00:37:15;;;;;;;;;;;;;;;21.29;76.37;96953.51;619877;228;64779;-61
2023/06/19 00:39:43;;;;;;;;;;;;;;;21.29;76.37;96956.18;620175;228;67213;-61
2023/06/19 00:42:10;;;;;;;;;;;;;;;21.28;76.38;96949.25;620083;228;68677;-61
2023/06/19 00:44:38;;;;;;;;;;;;;;;21.28;76.39;96951.92;620091;228;62909;-61
2023/06/19 00:47:06;;;;;;;;;;;;;;;21.28;76.39;96950.04;620120;228;66400;-61
2023/06/19 00:49:33;;;;;;;;;;;;;;;21.28;76.38;96951.92;620100;228;68624;-61
2023/06/19 00:52:01;;;;;;;;;;;;;;;21.29;76.39;96948.16;620186;228;64948;-61
2023/06/19 00:54:29;;;;;;;;;;;;;;;21.28;76.39;96951.92;620084;228;68788;-61
2023/06/19 00:56:57;;;;;;;;;;;;;;;21.28;76.38;96951.92;620128;228;68659;-61
2023/06/19 00:59:24;;;;;;;;;;;;;;;21.28;76.39;96952.72;620140;228;62737;-61
2023/06/19 01:01:52;;;;;;;;;;;;;;;21.28;76.38;96951.92;620127;228;66535;-61
2023/06/19 01:04:20;;;;;;;;;;;;;;;21.29;76.41;96953.51;620201;228;69180;-61
2023/06/19 01:06:49;;;;;;;;;;;;;;;21.28;76.39;96946.58;620119;228;63700;-61
2023/06/19 01:09:18;;;;;;;;;;;;;;;21.29;76.37;96958.85;619958;228;66770;-61
2023/06/19 01:11:47;;;;;;;;;;;;;;;21.28;76.40;96957.27;620069;228;69012;-61
2023/06/19 01:14:16;;;;;;;;;;;;;;;21.29;76.41;96958.85;620073;228;66002;-61
2023/06/19 01:16:44;;;;;;;;;;;;;;;21.28;76.42;96951.92;619871;228;68717;-61
2023/06/19 01:19:15;;;;;;;;;;;;;;;21.28;76.43;96954.59;620126;228;68710;-61
2023/06/19 01:21:42;;;;;;;;;;;;;;;21.27;76.41;96950.30;620109;228;62504;-61
2023/06/19 01:24:09;;;;;;;;;;;;;;;21.28;76.42;96951.92;620128;228;66568;-61
2023/06/19 01:26:39;;;;;;;;;;;;;;;21.28;76.44;96951.92;620137;228;53686;-61
2023/06/19 01:29:06;;;;;;;;;;;;;;;21.27;76.43;96959.11;620130;228;62996;-61
2023/06/19 01:31:35;;;;;;;;;;;;;;;21.27;76.42;96951.09;620183;228;66208;-61
2023/06/19 01:34:04;;;;;;;;;;;;;;;21.28;76.44;96949.25;620043;228;66444;-61
2023/06/19 01:36:32;;;;;;;;;;;;;;;21.26;76.43;96943.37;620125;228;65024;-61
2023/06/19 01:39:00;;;;;;;;;;;;;;;21.28;76.44;96951.92;620123;228;66478;-61
2023/06/19 01:41:28;;;;;;;;;;;;;;;21.28;76.45;96949.25;620105;228;68962;-61
2023/06/19 01:43:57;;;;;;;;;;;;;;;21.29;76.46;96950.84;620186;228;65060;-61
2023/06/19 01:46:25;;;;;;;;;;;;;;;21.27;76.45;96953.77;620143;228;66696;-61
2023/06/19 01:48:53;;;;;;;;;;;;;;;21.27;76.46;96945.75;620470;228;66433;-61
2023/06/19 01:51:21;;;;;;;;;;;;;;;21.27;76.46;96940.41;621972;227;65034;-61
2023/06/19 01:53:48;;;;;;;;;;;;;;;21.26;76.46;96943.37;621966;228;68936;-61
2023/06/19 01:56:15;;;;;;;;;;;;;;;21.27;76.45;96950.30;622007;228;66443;-61
2023/06/19 01:58:43;;;;;;;;;;;;;;;21.27;76.46;96951.09;621941;228;65187;-61
2023/06/19 02:01:10;;;;;;;;;;;;;;;21.28;76.47;96951.92;621908;228;68858;-61
2023/06/19 02:03:38;;;;;;;;;;;;;;;21.27;76.47;96951.09;621937;228;68615;-61
2023/06/19 02:06:07;;;;;;;;;;;;;;;21.27;76.49;96944.95;621976;228;64998;-61
2023/06/19 02:08:36;;;;;;;;;;;;;;;21.28;76.47;96951.92;622041;228;49972;-61
2023/06/19 02:11:04;;;;;;;;;;;;;;;21.26;76.49;96954.85;621914;228;68841;-61
2023/06/19 02:13:33;;;;;;;;;;;;;;;21.27;76.49;96951.09;621944;228;63788;-61
2023/06/19 02:16:00;;;;;;;;;;;;;;;21.26;76.48;96954.06;621920;228;66443;-61
2023/06/19 02:18:28;;;;;;;;;;;;;;;21.27;76.50;96952.97;621997;228;67073;-61
2023/06/19 02:20:56;;;;;;;;;;;;;;;21.27;76.50;96960.98;622015;228;65282;-61
2023/06/19 02:23:23;;;;;;;;;;;;;;;21.27;76.48;96961.78;621990;228;68799;-61
2023/06/19 02:25:51;;;;;;;;;;;;;;;21.27;76.53;96960.98;621915;228;68859;-61
2023/06/19 02:28:18;;;;;;;;;;;;;;;21.27;76.51;96966.34;621919;228;66110;-61
2023/06/19 02:30:46;;;;;;;;;;;;;;;21.26;76.50;96970.89;621934;228;68740;-61
2023/06/19 02:33:13;;;;;;;;;;;;;;;21.27;76.49;96971.69;621953;228;68729;-61
2023/06/19 02:35:41;;;;;;;;;;;;;;;21.27;76.50;96982.37;621991;228;65105;-61
2023/06/19 02:38:09;;;;;;;;;;;;;;;21.26;76.50;96975.44;621942;228;68627;-61
2023/06/19 02:40:36;;;;;;;;;;;;;;;21.26;76.50;96975.44;621952;228;66330;-61
2023/06/19 02:43:04;;;;;;;;;;;;;;;21.26;76.51;96978.11;621963;228;64828;-61
2023/06/19 02:45:32;;;;;;;;;;;;;;;21.26;76.52;96976.23;621951;228;68470;-61
2023/06/19 02:47:59;;;;;;;;;;;;;;;21.26;76.51;96978.11;621988;228;68535;-61
2023/06/19 02:50:27;;;;;;;;;;;;;;;21.26;76.56;96978.11;620277;228;65153;-61
2023/06/19 02:52:54;;;;;;;;;;;;;;;21.26;76.55;96986.92;620126;228;66613;-60
2023/06/19 02:55:22;;;;;;;;;;;;;;;21.26;76.60;96980.78;620073;228;68349;-60
2023/06/19 02:57:49;;;;;;;;;;;;;;;21.26;76.57;96983.45;620118;228;66209;-60
2023/06/19 03:00:17;;;;;;;;;;;;;;;21.26;76.55;96981.58;620161;228;69013;-61
2023/06/19 03:02:44;;;;;;;;;;;;;;;21.26;76.59;96983.45;620136;228;68548;-61
2023/06/19 03:05:15;;;;;;;;;;;;;;;21.25;76.57;96981.84;620140;228;64888;-61
2023/06/19 03:07:42;;;;;;;;;;;;;;;21.26;76.56;96988.80;620137;228;65842;-61
2023/06/19 03:10:10;;;;;;;;;;;;;;;21.26;76.56;96980.78;620112;228;68288;-61
2023/06/19 03:12:37;;;;;;;;;;;;;;;21.25;76.57;96981.84;620186;228;65042;-61
2023/06/19 03:15:05;;;;;;;;;;;;;;;21.25;76.56;96985.34;620127;228;66199;-61
2023/06/19 03:17:34;;;;;;;;;;;;;;;21.26;76.57;96986.13;620110;228;69049;-61
2023/06/19 03:20:02;;;;;;;;;;;;;;;21.25;76.56;96979.16;620146;228;64854;-61
2023/06/19 03:22:29;;;;;;;;;;;;;;;21.25;76.57;96979.99;620118;228;69046;-61
2023/06/19 03:24:57;;;;;;;;;;;;;;;21.24;76.56;96973.03;620160;228;68342;-61
2023/06/19 03:27:26;;;;;;;;;;;;;;;21.25;76.58;96976.49;620193;229;62573;-61
2023/06/19 03:29:55;;;;;;;;;;;;;;;21.25;76.60;96979.99;619977;228;48214;-61
2023/06/19 03:32:25;;;;;;;;;;;;;;;21.25;76.57;96973.82;619982;228;45471;-61
2023/06/19 03:34:52;;;;;;;;;;;;;;;21.25;76.56;96976.49;620093;229;65196;-61
2023/06/19 03:37:20;;;;;;;;;;;;;;;21.24;76.56;96978.38;620078;229;68879;-61
2023/06/19 03:39:49;;;;;;;;;;;;;;;21.25;76.58;96979.16;620169;229;48411;-61
2023/06/19 03:42:17;;;;;;;;;;;;;;;21.24;76.57;96973.03;620108;229;63013;-61
2023/06/19 03:44:44;;;;;;;;;;;;;;;21.25;76.58;96979.16;620104;229;69341;-60
2023/06/19 03:47:12;;;;;;;;;;;;;;;21.24;76.57;96973.03;620063;229;69100;-60
2023/06/19 03:49:40;;;;;;;;;;;;;;;21.24;76.58;96972.23;620065;228;62854;-60
2023/06/19 03:52:08;;;;;;;;;;;;;;;21.25;76.57;96984.52;620153;229;66296;-60
2023/06/19 03:54:36;;;;;;;;;;;;;;;21.24;76.58;96975.70;620102;229;68639;-60
2023/06/19 03:57:03;;;;;;;;;;;;;;;21.25;76.60;96979.16;620140;229;64864;-60
2023/06/19 03:59:31;;;;;;;;;;;;;;;21.24;76.61;96977.58;620113;229;68617;-60
2023/06/19 04:01:59;;;;;;;;;;;;;;;21.24;76.61;96972.23;620063;229;69241;-60
2023/06/19 04:04:26;;;;;;;;;;;;;;;21.25;76.62;96979.16;620137;229;62635;-60
2023/06/19 04:06:55;;;;;;;;;;;;;;;21.24;76.62;96972.23;620107;229;66334;-60
2023/06/19 04:09:23;;;;;;;;;;;;;;;21.24;76.77;96973.03;620088;229;68634;-60
2023/06/19 04:11:50;;;;;;;;;;;;;;;21.24;76.66;96969.56;620078;229;66180;-60
2023/06/19 04:14:18;;;;;;;;;;;;;;;21.23;76.66;96960.75;620104;229;66651;-60
2023/06/19 04:16:45;;;;;;;;;;;;;;;21.24;76.66;96964.22;620110;229;69435;-60
2023/06/19 04:19:13;;;;;;;;;;;;;;;21.24;76.66;96970.36;620106;229;65064;-60
2023/06/19 04:21:40;;;;;;;;;;;;;;;21.23;76.67;96974.11;620127;229;68811;-60
2023/06/19 04:24:08;;;;;;;;;;;;;;;21.23;76.64;96967.97;620110;229;66758;-60
2023/06/19 04:26:39;;;;;;;;;;;;;;;21.23;76.64;96971.44;620108;229;64643;-60
2023/06/19 04:29:07;;;;;;;;;;;;;;;21.24;76.83;96966.89;620065;229;66307;-59
2023/06/19 04:31:40;;;;;;;;;;;;;;;21.24;76.64;96977.58;620178;228;68646;-58
2023/06/19 04:34:04;;;;;;;;;;;;;;;21.24;76.61;96974.91;619951;228;65168;-60
2023/06/19 04:36:32;;;;;;;;;;;;;;;21.23;76.63;96971.44;619844;228;66414;-59
2023/06/19 04:39:00;;;;;;;;;;;;;;;21.23;76.63;96971.44;620112;228;66554;-59
2023/06/19 04:41:28;;;;;;;;;;;;;;;21.24;76.61;96974.91;620130;228;65027;-59
2023/06/19 04:43:55;;;;;;;;;;;;;;;21.24;76.62;96966.89;620142;228;68600;-59
2023/06/19 04:46:23;;;;;;;;;;;;;;;21.23;76.63;96971.44;620179;228;68521;-59
2023/06/19 04:48:50;;;;;;;;;;;;;;;21.23;76.62;96966.09;620473;227;65123;-59
2023/06/19 04:51:21;;;;;;;;;;;;;;;21.24;76.61;96974.91;621968;228;66333;-59
2023/06/19 04:53:48;;;;;;;;;;;;;;;21.24;76.62;96973.03;621940;228;69047;-59
2023/06/19 04:56:16;;;;;;;;;;;;;;;21.23;76.66;96965.30;621960;228;62898;-59
2023/06/19 04:58:47;;;;;;;;;;;;;;;21.23;76.67;96975.98;621969;228;68688;-59
2023/06/19 05:01:14;;;;;;;;;;;;;;;21.24;76.64;96977.58;621984;228;68506;-59
2023/06/19 05:03:43;;;;;;;;;;;;;;;21.23;76.63;96982.13;621988;228;64805;-59
2023/06/19 05:06:11;;;;;;;;;;;;;;;21.23;76.64;96976.78;621943;228;66562;-59
2023/06/19 05:08:38;;;;;;;;;;;;;;;21.22;76.64;96975.16;621939;228;68651;-59
2023/06/19 05:11:06;;;;;;;;;;;;;;;21.23;76.66;96973.32;622007;228;64901;-59
2023/06/19 05:13:33;;;;;;;;;;;;;;;21.23;76.66;96975.98;621983;228;66211;-59
2023/06/19 05:16:01;;;;;;;;;;;;;;;21.23;76.66;96973.32;621948;228;66598;-59
2023/06/19 05:18:28;;;;;;;;;;;;;;;21.23;76.66;96970.64;621955;228;64930;-59
2023/06/19 05:20:58;;;;;;;;;;;;;;;21.23;76.66;96973.32;622019;228;52272;-59
2023/06/19 05:23:25;;;;;;;;;;;;;;;21.23;76.67;96975.98;621949;228;66594;-59
2023/06/19 05:25:53;;;;;;;;;;;;;;;21.22;76.67;96974.38;621964;228;62996;-59
2023/06/19 05:28:20;;;;;;;;;;;;;;;21.22;76.69;96971.70;621951;228;66619;-59
2023/06/19 05:30:50;;;;;;;;;;;;;;;21.22;76.70;96975.16;621940;228;68722;-59
2023/06/19 05:33:17;;;;;;;;;;;;;;;21.23;76.70;96975.98;621968;228;62685;-59
2023/06/19 05:35:51;;;;;;;;;;;;;;;21.22;76.71;96977.84;622019;228;66689;-59
2023/06/19 05:38:14;;;;;;;;;;;;;;;21.22;76.71;96972.49;621715;228;66590;-59
2023/06/19 05:40:41;;;;;;;;;;;;;;;21.22;76.72;96979.72;621984;228;63021;-59
2023/06/19 05:43:09;;;;;;;;;;;;;;;21.22;76.74;96975.16;621919;228;66377;-59
2023/06/19 05:45:36;;;;;;;;;;;;;;;21.21;76.73;96978.92;621939;228;66651;-59
2023/06/19 05:48:04;;;;;;;;;;;;;;;21.21;76.75;96978.92;622014;228;62971;-59
2023/06/19 05:50:32;;;;;;;;;;;;;;;21.22;76.78;96982.39;620204;228;69937;-59
2023/06/19 05:53:00;;;;;;;;;;;;;;;21.22;76.80;96982.39;620069;228;68545;-59
2023/06/19 05:55:27;;;;;;;;;;;;;;;21.22;76.74;96977.05;619815;228;65167;-59
2023/06/19 05:57:56;;;;;;;;;;;;;;;21.22;77.09;96982.39;619329;228;70412;-59
2023/06/19 06:00:23;;;;;;;;;;;;;;;21.22;77.35;96974.38;620157;228;66384;-59
2023/06/19 06:02:52;;;;;;;;;;;;;;;21.21;77.19;96978.13;619970;228;62936;-59
2023/06/19 06:05:20;;;;;;;;;;;;;;;21.20;76.89;96969.31;620082;228;66573;-60
2023/06/19 06:07:48;;;;;;;;;;;;;;;21.21;78.01;96972.78;619822;228;69080;-59
2023/06/19 06:10:16;;;;;;;;;;;;;;;21.21;78.68;96970.11;620075;228;64941;-59
2023/06/19 06:12:44;;;;;;;;;;;;;;;21.18;77.89;96963.44;620053;228;68814;-59
2023/06/19 06:15:11;;;;;;;;;;;;;;;21.20;77.47;96965.84;620137;228;68707;-59
2023/06/19 06:17:39;;;;;;;;;;;;;;;21.21;76.76;96960.22;620077;228;65063;-59
2023/06/19 06:20:11;;;;;;;;;;;;;;;21.21;76.85;96960.22;620069;228;68742;-60
2023/06/19 06:22:40;;;;;;;;;;;;;;;21.23;77.62;96957.28;620119;228;68764;-59
2023/06/19 06:25:07;;;;;;;;;;;;;;;21.24;76.83;96969.56;620084;228;65183;-59
2023/06/19 06:27:35;;;;;;;;;;;;;;;21.25;78.42;96969.30;620142;228;68447;-59
2023/06/19 06:30:03;;;;;;;;;;;;;;;21.25;78.35;96973.82;620086;228;68717;-60
2023/06/19 06:32:31;;;;;;;;;;;;;;;21.23;76.93;96974.11;620006;228;62929;-59
2023/06/19 06:34:58;;;;;;;;;;;;;;;21.25;76.44;96968.48;620115;228;68852;-59
2023/06/19 06:37:26;;;;;;;;;;;;;;;21.25;77.03;96963.12;620137;228;68526;-59
2023/06/19 06:39:53;;;;;;;;;;;;;;;21.27;77.07;96966.34;620082;228;64869;-59
2023/06/19 06:42:21;;;;;;;;;;;;;;;21.27;77.52;96961.78;620064;228;68715;-59
2023/06/19 06:44:49;;;;;;;;;;;;;;;21.26;76.63;96959.41;620056;228;66156;-59
2023/06/19 06:47:17;;;;;;;;;;;;;;;21.26;76.46;96967.42;620033;228;62975;-59
2023/06/19 06:49:44;;;;;;;;;;;;;;;21.28;76.45;96970.62;620983;228;66464;-59
2023/06/19 06:52:12;;;;;;;;;;;;;;;21.27;76.45;96971.69;621887;228;66591;-59
2023/06/19 06:54:40;;;;;;;;;;;;;;;21.28;76.39;96973.30;621844;228;65117;-59
2023/06/19 06:57:08;;;;;;;;;;;;;;;21.29;76.39;96982.91;621815;228;68820;-59
2023/06/19 06:59:35;;;;;;;;;;;;;;;21.29;76.35;96977.56;621937;228;68555;-59
2023/06/19 07:02:03;;;;;;;;;;;;;;;21.29;76.35;96982.91;621896;228;63006;-59
2023/06/19 07:04:31;;;;;;;;;;;;;;;21.29;76.39;96980.23;621953;228;66519;-59
2023/06/19 07:07:00;;;;;;;;;;;;;;;21.29;76.44;96986.38;621889;228;68813;-59
2023/06/19 07:09:27;;;;;;;;;;;;;;;21.29;76.44;96986.38;621893;228;65189;-59
2023/06/19 07:11:55;;;;;;;;;;;;;;;21.29;76.47;96982.91;621912;228;68864;-59
2023/06/19 07:14:22;;;;;;;;;;;;;;;21.30;76.48;96995.19;621928;228;68289;-60
2023/06/19 07:16:50;;;;;;;;;;;;;;;21.29;76.44;96988.25;621936;228;63048;-59
2023/06/19 07:19:18;;;;;;;;;;;;;;;21.29;76.43;96989.05;621995;228;68509;-60
2023/06/19 07:21:45;;;;;;;;;;;;;;;21.31;76.43;96990.64;621792;228;68781;-59
2023/06/19 07:24:13;;;;;;;;;;;;;;;21.29;76.42;96985.58;621883;228;65174;-60
2023/06/19 07:26:40;;;;;;;;;;;;;;;21.30;76.42;96984.50;621871;228;69399;-60
2023/06/19 07:29:08;;;;;;;;;;;;;;;21.31;76.41;96990.64;621908;228;68530;-59
2023/06/19 07:31:35;;;;;;;;;;;;;;;21.31;76.40;96991.46;621987;228;65043;-60
2023/06/19 07:34:03;;;;;;;;;;;;;;;21.31;76.37;96980.77;621940;228;68537;-59
2023/06/19 07:36:30;;;;;;;;;;;;;;;21.31;76.35;96985.30;621876;228;66733;-59
2023/06/19 07:38:58;;;;;;;;;;;;;;;21.32;76.35;96984.23;621024;228;63819;-59
2023/06/19 07:41:25;;;;;;;;;;;;;;;21.32;76.38;96989.58;621799;228;68442;-59
2023/06/19 07:43:52;;;;;;;;;;;;;;;21.31;76.33;96988.79;621841;228;68669;-59
2023/06/19 07:46:20;;;;;;;;;;;;;;;21.32;76.31;96989.58;621897;228;62942;-59
2023/06/19 07:48:48;;;;;;;;;;;;;;;21.32;76.29;96985.03;621516;228;66926;-60
2023/06/19 07:51:15;;;;;;;;;;;;;;;21.32;76.29;96985.03;619988;229;66693;-60
2023/06/19 07:53:43;;;;;;;;;;;;;;;21.33;76.28;96983.16;620074;229;65023;-60
2023/06/19 07:56:10;;;;;;;;;;;;;;;21.33;76.30;96980.48;620077;229;68686;-60
2023/06/19 07:58:38;;;;;;;;;;;;;;;21.33;76.27;96994.64;619985;229;68681;-61
2023/06/19 08:01:05;;;;;;;;;;;;;;;21.33;76.17;96988.50;620111;229;65066;-62
2023/06/19 08:03:33;;;;;;;;;;;;;;;21.33;74.98;96986.62;620065;229;68844;-62
2023/06/19 08:06:00;;;;;;;;;;;;;;;21.34;76.26;96995.47;620046;228;68774;-61
2023/06/19 08:08:28;;;;;;;;;;;;;;;21.33;76.46;96997.31;620146;228;63022;-62
2023/06/19 08:10:56;;;;;;;;;;;;;;;21.33;76.46;96989.30;620063;228;68774;-62
2023/06/19 08:13:23;;;;;;;;;;;;;;;21.32;74.68;96995.72;620031;228;68772;-61
2023/06/19 08:15:50;;;;;;;;;;;;;;;21.33;74.42;96991.97;620100;228;65158;-61
2023/06/19 08:18:18;;;;;;;;;;;;;;;21.35;75.38;96989.83;619964;228;68767;-62
2023/06/19 08:20:45;;;;;;;;;;;;;;;21.35;74.23;96997.05;620140;228;66490;-59
2023/06/19 08:23:13;;;;;;;;;;;;;;;21.36;74.65;96996.80;620156;228;63004;-59
2023/06/19 08:25:40;;;;;;;;;;;;;;;21.36;76.06;97002.14;620046;227;66581;-59
2023/06/19 08:28:08;;;;;;;;;;;;;;;21.35;76.32;96997.84;620110;228;66376;-59
2023/06/19 08:30:36;;;;;;;;;;;;;;;21.34;76.36;96998.94;620102;228;64961;-59
2023/06/19 08:33:05;;;;;;;;;;;;;;;21.34;76.34;96998.94;619964;228;68642;-59
2023/06/19 08:35:33;;;;;;;;;;;;;;;21.34;76.36;96998.14;620103;228;66786;-60
2023/06/19 08:38:02;;;;;;;;;;;;;;;21.34;76.99;96996.26;620111;228;63186;-61
2023/06/19 08:40:30;;;;;;;;;;;;;;;21.38;75.94;97000.00;620059;228;66540;-63
2023/06/19 08:42:57;;;;;;;;;;;;;;;21.41;75.34;96988.76;620108;228;66879;-59
2023/06/19 08:45:26;;;;;;;;;;;;;;;21.39;73.81;97001.62;620053;228;63032;-59
2023/06/19 08:48:00;;;;;;;;;;;;;;;21.41;76.48;97004.00;620113;228;66487;-60
2023/06/19 08:50:28;;;;;;;;;;;;;;;21.38;75.89;97000.00;620056;228;67479;-60
2023/06/19 08:52:56;;;;;;;;;;;;;;;21.37;76.15;96995.73;620128;228;65022;-59
2023/06/19 08:55:24;;;;;;;;;;;;;;;21.37;76.08;96995.73;620040;228;66080;-61
2023/06/19 08:57:52;;;;;;;;;;;;;;;21.37;76.04;96993.06;620031;228;68717;-59
2023/06/19 09:00:25;;;;;;;;;;;;;;;21.36;73.83;96994.12;620142;228;65119;-60
2023/06/19 09:02:53;;;;;;;;;;;;;;;21.38;75.38;96989.31;620084;228;66869;-59
2023/06/19 09:05:20;;;;;;;;;;;;;;;21.38;75.78;96983.96;620060;228;66777;-59
2023/06/19 09:08:01;;;;;;;;;;;;;;;21.38;75.89;96994.66;620085;228;65035;-59
2023/06/19 09:10:30;;;;;;;;;;;;;;;21.38;75.95;96991.19;620037;228;45360;-59
2023/06/19 09:12:59;;;;;;;;;;;;;;;21.37;75.95;96989.56;620062;228;68729;-59
2023/06/19 09:15:30;;;;;;;;;;;;;;;21.38;75.97;96991.19;620071;228;62739;-59
2023/06/19 09:18:03;;;;;;;;;;;;;;;21.37;75.98;96989.56;620064;228;67349;-59
2023/06/19 09:20:31;;;;;;;;;;;;;;;21.37;75.92;96987.72;620080;228;66379;-59
2023/06/19 09:22:59;;;;;;;;;;;;;;;21.38;75.91;96996.53;619976;228;65037;-59
2023/06/19 09:25:27;;;;;;;;;;;;;;;21.37;75.96;96995.73;620025;228;68781;-59
2023/06/19 09:27:55;;;;;;;;;;;;;;;21.37;76.07;96993.06;620051;228;66771;-59
2023/06/19 09:30:23;;;;;;;;;;;;;;;21.38;76.37;97000.00;620092;228;65109;-59
2023/06/19 09:32:50;;;;;;;;;;;;;;;21.38;76.77;97000.00;619994;228;68901;-59
2023/06/19 09:35:18;;;;;;;;;;;;;;;21.38;77.48;96997.33;620067;228;68745;-59
2023/06/19 09:37:46;;;;;;;;;;;;;;;21.38;77.63;96994.66;619306;228;65012;-59
2023/06/19 09:40:14;;;;;;;;;;;;;;;21.38;77.83;96989.31;619019;228;66680;-59
2023/06/19 09:42:42;;;;;;;;;;;;;;;21.38;78.09;96993.86;620158;228;66483;-59
2023/06/19 09:45:14;;;;;;;;;;;;;;;21.37;77.88;96992.23;619632;228;47443;-59
2023/06/19 09:47:43;;;;;;;;;;;;;;;21.37;78.05;96993.06;620056;228;66705;-59
2023/06/19 09:50:12;;;;;;;;;;;;;;;21.37;78.02;96998.41;621059;228;67037;-60
2023/06/19 09:52:42;;;;;;;;;;;;;;;21.37;78.15;96995.73;623084;227;65050;-59
2023/06/19 09:55:12;;;;;;;;;;;;;;;21.37;78.24;97000.26;623102;226;66472;-59
2023/06/19 09:57:40;;;;;;;;;;;;;;;21.38;78.29;97002.67;623079;226;68763;-59
2023/06/19 10:00:22;;;;;;;;;;;;;;;21.38;77.98;97004.55;623168;227;65128;-59
2023/06/19 10:02:41;;;;;;;;;;;;;;;21.38;78.01;97005.34;622751;226;66427;-59
2023/06/19 10:05:13;;;;;;;;;;;;;;;21.38;78.20;97005.34;623168;227;66543;-59
2023/06/19 10:07:40;;;;;;;;;;;;;;;21.37;78.09;97001.09;623411;226;63109;-60
2023/06/19 10:10:09;;;;;;;;;;;;;;;21.37;77.96;97009.11;623541;227;68434;-59
2023/06/19 10:12:41;;;;;;;;;;;;;;;21.39;78.06;97011.48;623503;227;68751;-60
2023/06/19 10:15:13;;;;;;;;;;;;;;;21.38;78.08;97001.88;623548;227;62971;-60
2023/06/19 10:17:48;;;;;;;;;;;;;;;21.39;78.04;97022.19;623523;227;69162;-59
2023/06/19 10:20:27;;;;;;;;;;;;;;;21.46;75.03;97002.11;623399;227;68794;-59
2023/06/19 10:22:59;;;;;;;;;;;;;;;21.45;74.52;97011.21;623535;227;64862;-59
2023/06/19 10:25:28;;;;;;;;;;;;;;;21.44;75.18;96998.11;623542;227;68831;-60
2023/06/19 10:27:56;;;;;;;;;;;;;;;21.43;76.54;96999.98;623210;226;68678;-59
2023/06/19 10:30:24;;;;;;;;;;;;;;;21.43;77.44;96996.52;623534;227;65007;-59
2023/06/19 10:32:53;;;;;;;;;;;;;;;21.41;76.68;96994.10;623469;227;66728;-59
2023/06/19 10:35:24;;;;;;;;;;;;;;;21.41;77.02;97002.12;623418;227;68447;-58
2023/06/19 10:37:53;;;;;;;;;;;;;;;21.41;77.37;96999.45;623381;226;65705;-58
2023/06/19 10:40:20;;;;;;;;;;;;;;;21.41;76.94;97004.80;623559;227;68750;-59
2023/06/19 10:42:48;;;;;;;;;;;;;;;21.41;78.34;97001.33;623572;227;67280;-59
2023/06/19 10:45:19;;;;;;;;;;;;;;;21.41;78.46;96999.45;623581;227;65064;-60
2023/06/19 10:47:46;;;;;;;;;;;;;;;21.40;78.45;96997.86;623530;227;68657;-60
2023/06/19 10:50:14;;;;;;;;;;;;;;;21.40;78.54;96995.19;623436;227;68740;-59
2023/06/19 10:52:43;;;;;;;;;;;;;;;21.40;78.57;97003.20;623635;227;65056;-59
2023/06/19 10:55:11;;;;;;;;;;;;;;;21.40;78.55;96989.84;623014;227;68619;-62
2023/06/19 10:57:39;;;;;;;;;;;;;;;21.41;78.40;96985.29;621842;228;68419;-60
2023/06/19 11:00:14;;;;;;;;;;;;;;;21.41;74.86;96994.10;621908;228;65008;-60
2023/06/19 11:02:43;;;;;;;;;;;;;;;21.43;75.20;96975.13;620681;227;68775;-60
2023/06/19 11:05:12;;;;;;;;;;;;;;;21.43;76.76;96996.52;622493;227;67158;-59
2023/06/19 11:07:39;;;;;;;;;;;;;;;21.43;77.77;96986.61;623630;227;65055;-59
2023/06/19 11:10:07;;;;;;;;;;;;;;;21.43;78.07;96980.48;623487;227;68741;-60
2023/06/19 11:12:35;;;;;;;;;;;;;;;21.42;78.20;96987.70;623533;227;69778;-60
2023/06/19 11:15:05;;;;;;;;;;;;;;;21.42;78.35;96978.89;623546;227;65051;-59
2023/06/19 11:17:33;;;;;;;;;;;;;;;21.42;78.36;96989.58;623495;227;66349;-60
2023/06/19 11:20:00;;;;;;;;;;;;;;;21.42;78.24;96984.23;623646;227;66467;-60
2023/06/19 11:22:38;;;;;;;;;;;;;;;21.41;78.33;96975.39;623546;227;63002;-60
2023/06/19 11:25:06;;;;;;;;;;;;;;;21.41;78.28;96972.72;623515;227;68321;-60
2023/06/19 11:27:35;;;;;;;;;;;;;;;21.41;78.36;96983.41;623563;227;68532;-59
2023/06/19 11:30:04;;;;;;;;;;;;;;;21.42;78.31;96978.89;623541;227;62899;-59
2023/06/19 11:32:32;;;;;;;;;;;;;;;21.42;78.39;96984.23;623569;227;66396;-61
2023/06/19 11:35:01;;;;;;;;;;;;;;;21.42;78.23;96976.22;623579;227;68493;-60
2023/06/19 11:37:30;;;;;;;;;;;;;;;21.41;78.32;96979.94;623476;226;64874;-59
2023/06/19 11:39:58;;;;;;;;;;;;;;;21.43;78.16;96980.48;623525;227;68870;-59
2023/06/19 11:42:26;;;;;;;;;;;;;;;21.42;78.16;96974.34;623548;227;68453;-59
2023/06/19 11:44:54;;;;;;;;;;;;;;;21.42;78.17;96974.34;623543;227;64796;-60
2023/06/19 11:47:22;;;;;;;;;;;;;;;21.42;77.94;96971.66;623658;227;68822;-60
2023/06/19 11:49:50;;;;;;;;;;;;;;;21.41;77.20;96972.72;623609;227;66494;-60
2023/06/19 11:52:18;;;;;;;;;;;;;;;21.42;77.00;96968.98;623608;227;65017;-60
2023/06/19 11:54:47;;;;;;;;;;;;;;;21.44;76.94;96974.05;623641;227;67417;-59
2023/06/19 11:57:14;;;;;;;;;;;;;;;21.44;77.23;96976.72;623650;227;66694;-59
2023/06/19 11:59:42;;;;;;;;;;;;;;;21.44;77.48;96982.06;623666;227;64984;-60
2023/06/19 12:02:11;;;;;;;;;;;;;;;21.55;74.65;96974.80;623512;226;66484;-60
2023/06/19 12:04:40;;;;;;;;;;;;;;;21.59;76.20;96967.84;623695;227;66622;-60
2023/06/19 12:07:07;;;;;;;;;;;;;;;21.60;76.86;96964.08;623612;227;65066;-60
2023/06/19 12:09:35;;;;;;;;;;;;;;;21.61;76.44;96960.34;623684;227;68884;-60
2023/06/19 12:12:03;;;;;;;;;;;;;;;21.65;74.84;96964.05;623732;227;68503;-59
2023/06/19 12:14:30;;;;;;;;;;;;;;;21.64;74.61;96951.77;623579;227;64925;-59
2023/06/19 12:16:58;;;;;;;;;;;;;;;21.63;76.41;96958.97;623705;227;66657;-59
2023/06/19 12:19:26;;;;;;;;;;;;;;;21.62;76.54;96946.69;623646;227;66995;-60
2023/06/19 12:21:54;;;;;;;;;;;;;;;21.62;76.67;96957.38;623615;227;63014;-60
2023/06/19 12:24:22;;;;;;;;;;;;;;;21.62;76.87;96957.38;623647;227;68577;-61
2023/06/19 12:26:49;;;;;;;;;;;;;;;21.63;76.85;96952.83;623751;227;68893;-61
2023/06/19 12:29:17;;;;;;;;;;;;;;;21.63;76.82;96950.15;623634;227;65113;-60
2023/06/19 12:31:44;;;;;;;;;;;;;;;21.63;76.78;96947.48;623702;227;68733;-60
2023/06/19 12:34:12;;;;;;;;;;;;;;;21.63;76.78;96937.57;623643;227;66624;-62
2023/06/19 12:36:39;;;;;;;;;;;;;;;21.64;76.72;96943.74;623659;227;62957;-62
2023/06/19 12:39:16;;;;;;;;;;;;;;;21.64;76.58;96943.74;623723;227;66265;-62
2023/06/19 12:41:36;;;;;;;;;;;;;;;21.63;76.73;96947.48;623459;226;68625;-62
2023/06/19 12:44:04;;;;;;;;;;;;;;;21.59;77.02;96935.75;623599;227;62996;-62
2023/06/19 12:46:33;;;;;;;;;;;;;;;21.59;77.26;96943.77;623637;227;66921;-62
2023/06/19 12:49:00;;;;;;;;;;;;;;;21.57;77.03;96938.69;623620;227;68774;-62
2023/06/19 12:51:28;;;;;;;;;;;;;;;21.57;76.87;96937.89;623617;227;65054;-62